createdAt,value
2022-10-25T00:01:47.491Z,100010.34
2022-10-25T00:04:15.145Z,100008.63
2022-10-25T00:06:42.265Z,100009.50
2022-10-25T00:09:08.863Z,100002.56
2022-10-25T00:11:35.869Z,100000.81
2022-10-25T00:14:05.224Z,100006.88
2022-10-25T00:16:35.189Z,100004.28
2022-10-25T00:19:01.815Z,100003.44
2022-10-25T00:21:28.402Z,99997.38
2022-10-25T00:23:55.382Z,99999.97
2022-10-25T00:26:22.026Z,99999.06
2022-10-25T00:28:49.015Z,99999.94
2022-10-25T00:31:17.290Z,99993.91
2022-10-25T00:33:45.225Z,100000.81
2022-10-25T00:36:18.326Z,99990.41
2022-10-25T00:38:46.219Z,99989.53
2022-10-25T00:41:19.201Z,99991.25
2022-10-25T00:43:51.623Z,99982.63
2022-10-25T00:46:18.082Z,99979.16
2022-10-25T00:48:56.222Z,99978.28
2022-10-25T00:51:29.016Z,99969.63
2022-10-25T00:53:55.672Z,99975.66
2022-10-25T00:56:28.052Z,99966.16
2022-10-25T00:59:00.460Z,99951.50
2022-10-25T01:01:27.602Z,99955.84
2022-10-25T01:03:58.146Z,99954.97
2022-10-25T01:06:32.049Z,99955.81
2022-10-25T01:08:59.807Z,99954.06
2022-10-25T01:11:26.295Z,99950.59
2022-10-25T01:13:53.674Z,99945.41
2022-10-25T01:16:58.449Z,99948.81
2022-10-25T01:20:04.232Z,99941.88
2022-10-25T01:22:42.221Z,99947.06
2022-10-25T01:25:24.370Z,99934.13
2022-10-25T01:28:18.348Z,99929.75
2022-10-25T01:31:06.579Z,99923.72
2022-10-25T01:33:56.950Z,99930.59
2022-10-25T01:36:47.524Z,99928.94
2022-10-25T01:39:20.480Z,99923.72
2022-10-25T01:41:55.799Z,99920.38
2022-10-25T01:44:49.805Z,99917.78
2022-10-25T01:47:56.137Z,99921.25
2022-10-25T01:50:32.786Z,99915.22
2022-10-25T01:52:59.461Z,99924.75
2022-10-25T01:55:53.365Z,99925.59
2022-10-25T01:58:38.014Z,99927.25
2022-10-25T02:01:26.917Z,99925.47
2022-10-25T02:03:57.362Z,99909.94
2022-10-25T02:06:47.146Z,99906.41
2022-10-25T02:09:23.591Z,99902.94
2022-10-25T02:11:53.054Z,99895.16
2022-10-25T02:14:34.494Z,99895.16
2022-10-25T02:17:11.407Z,99888.28
2022-10-25T02:20:00.590Z,99890.88
2022-10-25T02:22:31.812Z,99890.88
2022-10-25T02:25:00.157Z,99871.91
2022-10-25T02:27:28.149Z,99871.88
2022-10-25T02:29:55.159Z,99875.38
2022-10-25T02:32:22.070Z,99871.09
2022-10-25T02:34:49.428Z,99865.06
2022-10-25T02:37:16.919Z,99873.75
2022-10-25T02:39:45.689Z,99870.28
2022-10-25T02:42:12.498Z,99872.91
2022-10-25T02:44:39.138Z,99872.88
2022-10-25T02:47:05.781Z,99871.09
2022-10-25T02:49:32.358Z,99872.75
2022-10-25T02:51:58.880Z,99863.22
2022-10-25T02:54:25.399Z,99866.63
2022-10-25T02:56:52.968Z,99864.88
2022-10-25T02:59:21.126Z,99865.69
2022-10-25T03:01:48.175Z,99858.78
2022-10-25T03:04:14.747Z,99856.16
2022-10-25T03:06:41.278Z,99859.56
2022-10-25T03:09:07.754Z,99856.06
2022-10-25T03:11:34.363Z,99856.94
2022-10-25T03:14:00.822Z,99862.13
2022-10-25T03:16:27.296Z,99861.22
2022-10-25T03:18:57.909Z,99853.47
2022-10-25T03:21:25.160Z,99856.03
2022-10-25T03:23:52.263Z,99856.03
2022-10-25T03:26:19.203Z,99849.19
2022-10-25T03:28:45.983Z,99838.81
2022-10-25T03:31:14.528Z,99837.00
2022-10-25T03:33:41.510Z,99850.75
2022-10-25T03:36:08.157Z,99840.41
2022-10-25T03:38:34.994Z,99837.81
2022-10-25T03:41:01.514Z,99847.41
2022-10-25T03:43:28.142Z,99834.47
2022-10-25T03:45:54.636Z,99844.84
2022-10-25T03:48:21.169Z,99841.41
2022-10-25T03:50:47.761Z,99851.75
2022-10-25T03:53:14.396Z,99850.88
2022-10-25T03:55:42.077Z,99849.13
2022-10-25T03:58:08.585Z,99847.44
2022-10-25T04:00:35.201Z,99849.19
2022-10-25T04:03:02.961Z,99850.91
2022-10-25T04:05:30.639Z,99858.66
2022-10-25T04:07:57.410Z,99860.44
2022-10-25T04:10:25.287Z,99855.22
2022-10-25T04:12:53.889Z,99858.63
2022-10-25T04:15:23.251Z,99854.28
2022-10-25T04:17:51.581Z,99847.34
2022-10-25T04:20:18.872Z,99843.91
2022-10-25T04:22:45.442Z,99837.00
2022-10-25T04:25:12.089Z,99843.16
2022-10-25T04:27:38.679Z,99842.31
2022-10-25T04:30:05.567Z,99844.84
2022-10-25T04:32:32.128Z,99837.97
2022-10-25T04:34:58.597Z,99831.91
2022-10-25T04:37:25.099Z,99824.91
2022-10-25T04:39:51.803Z,99823.13
2022-10-25T04:42:19.370Z,99819.66
2022-10-25T04:44:45.954Z,99810.31
2022-10-25T04:47:12.487Z,99824.22
2022-10-25T04:49:39.113Z,99831.97
2022-10-25T04:52:05.676Z,99831.97
2022-10-25T04:54:32.203Z,99821.56
2022-10-25T04:56:58.721Z,99820.72
2022-10-25T04:59:25.255Z,99812.84
2022-10-25T05:04:23.680Z,99808.53
2022-10-25T05:06:50.169Z,99803.41
2022-10-25T05:09:16.683Z,99808.56
2022-10-25T05:11:43.431Z,99799.06
2022-10-25T05:14:09.905Z,99805.16
2022-10-25T05:16:36.421Z,99799.16
2022-10-25T05:19:03.037Z,99796.56
2022-10-25T05:21:30.786Z,99798.34
2022-10-25T05:24:01.640Z,99795.75
2022-10-25T05:26:29.354Z,99787.09
2022-10-25T05:28:57.065Z,99789.72
2022-10-25T05:31:25.873Z,99783.63
2022-10-25T05:33:55.551Z,99782.72
2022-10-25T05:36:22.106Z,99790.41
2022-10-25T05:38:48.940Z,99792.16
2022-10-25T05:41:17.493Z,99780.97
2022-10-25T05:43:44.750Z,99784.47
2022-10-25T05:46:13.191Z,99790.50
2022-10-25T05:48:44.482Z,99782.81
2022-10-25T05:54:12.119Z,99787.13
2022-10-25T05:56:40.130Z,99775.94
2022-10-25T05:59:09.429Z,99768.16
2022-10-25T06:01:40.578Z,99775.91
2022-10-25T06:04:07.931Z,99781.06
2022-10-25T06:06:35.334Z,99775.00
2022-10-25T06:09:02.030Z,99769.03
2022-10-25T06:11:29.599Z,99777.66
2022-10-25T06:13:56.850Z,99783.63
2022-10-25T06:16:24.139Z,99776.72
2022-10-25T06:18:50.997Z,99781.03
2022-10-25T06:21:22.560Z,99784.47
2022-10-25T06:23:49.827Z,99790.47
2022-10-25T06:26:19.143Z,99786.13
2022-10-25T06:28:45.726Z,99788.72
2022-10-25T06:31:14.949Z,99793.88
2022-10-25T06:33:41.888Z,99787.00
2022-10-25T06:36:16.821Z,99787.00
2022-10-25T06:38:44.893Z,99790.47
2022-10-25T06:41:15.328Z,99786.22
2022-10-25T06:43:41.965Z,99769.00
2022-10-25T06:46:11.380Z,99768.25
2022-10-25T06:48:37.883Z,99765.66
2022-10-25T06:51:06.444Z,99761.31
2022-10-25T06:53:33.288Z,99761.31
2022-10-25T06:56:05.967Z,99769.88
2022-10-25T06:58:35.240Z,99769.88
2022-10-25T07:01:16.107Z,99773.25
2022-10-25T07:03:43.368Z,99777.53
2022-10-25T07:06:09.836Z,99770.63
2022-10-25T07:08:38.111Z,99787.94
2022-10-25T07:11:05.048Z,99778.47
2022-10-25T07:13:33.368Z,99780.19
2022-10-25T07:16:04.914Z,99783.63
2022-10-25T07:18:32.563Z,99791.38
2022-10-25T07:21:10.717Z,99787.09
2022-10-25T07:23:42.047Z,99782.81
2022-10-25T07:26:12.819Z,99784.53
2022-10-25T07:28:39.545Z,99788.88
2022-10-25T07:31:06.892Z,99788.00
2022-10-25T07:33:33.513Z,99792.31
2022-10-25T07:36:06.537Z,99789.78
2022-10-25T07:38:37.407Z,99788.06
2022-10-25T07:41:03.990Z,99785.47
2022-10-25T07:43:31.094Z,99789.00
2022-10-25T07:45:57.615Z,99786.41
2022-10-25T07:48:24.146Z,99782.09
2022-10-25T07:50:50.843Z,99782.97
2022-10-25T07:53:17.479Z,99775.19
2022-10-25T07:55:49.185Z,99774.34
2022-10-25T07:58:15.935Z,99778.69
2022-10-25T08:00:42.490Z,99784.69
2022-10-25T08:03:09.035Z,99776.09
2022-10-25T08:05:35.604Z,99773.53
2022-10-25T08:08:02.310Z,99769.22
2022-10-25T08:10:28.847Z,99762.31
2022-10-25T08:12:56.345Z,99762.31
2022-10-25T08:15:23.111Z,99763.19
2022-10-25T08:17:57.643Z,99760.59
2022-10-25T08:20:42.999Z,99761.44
2022-10-25T08:23:10.836Z,99757.13
2022-10-25T08:25:37.348Z,99755.41
2022-10-25T08:28:04.855Z,99748.50
2022-10-25T08:30:31.358Z,99735.59
2022-10-25T08:32:58.834Z,99745.94
2022-10-25T08:35:25.399Z,99737.31
2022-10-25T08:37:51.900Z,99741.63
2022-10-25T08:40:26.398Z,99735.59
2022-10-25T08:43:23.074Z,99727.81
2022-10-25T08:46:05.229Z,99724.34
2022-10-25T08:48:40.667Z,99719.13
2022-10-25T08:51:28.293Z,99721.69
2022-10-25T08:54:01.524Z,99719.97
2022-10-25T08:56:29.455Z,99719.91
2022-10-25T08:59:00.154Z,99708.66
2022-10-25T09:01:41.394Z,99711.25
2022-10-25T09:04:09.030Z,99716.38
2022-10-25T09:06:48.009Z,99717.22
2022-10-25T09:09:35.247Z,99730.19
2022-10-25T09:12:20.679Z,99725.81
2022-10-25T09:14:53.128Z,99713.69
2022-10-25T09:17:31.350Z,99714.50
2022-10-25T09:20:11.382Z,99716.28
2022-10-25T09:22:49.182Z,99719.66
2022-10-25T09:25:41.682Z,99731.75
2022-10-25T09:28:19.054Z,99730.81
2022-10-25T09:30:46.231Z,99720.38
2022-10-25T09:33:17.966Z,99710.75
2022-10-25T09:35:48.539Z,99710.66
2022-10-25T09:38:22.217Z,99707.16
2022-10-25T09:41:01.137Z,99709.66
2022-10-25T09:43:45.700Z,99703.50
2022-10-25T09:46:14.802Z,99701.75
2022-10-25T09:48:55.322Z,99693.66
2022-10-25T09:51:34.549Z,99692.81
2022-10-25T09:54:09.361Z,99693.50
2022-10-25T09:56:35.843Z,99691.19
2022-10-25T09:59:04.393Z,99691.59
2022-10-25T10:01:33.486Z,99690.59
2022-10-25T10:04:36.348Z,99691.25
2022-10-25T10:07:08.615Z,99693.03
2022-10-25T10:09:38.346Z,99686.88
2022-10-25T10:12:12.454Z,99679.84
2022-10-25T10:14:44.546Z,99684.31
2022-10-25T10:17:17.162Z,99693.66
2022-10-25T10:19:44.307Z,99686.59
2022-10-25T10:22:16.723Z,99683.97
2022-10-25T10:25:00.888Z,99677.66
2022-10-25T10:27:28.745Z,99673.25
2022-10-25T10:30:00.760Z,99668.72
2022-10-25T10:32:31.951Z,99668.91
2022-10-25T10:34:59.098Z,99663.50
2022-10-25T10:37:28.135Z,99658.28
2022-10-25T10:40:07.099Z,99661.72
2022-10-25T10:42:36.062Z,99660.78
2022-10-25T10:45:08.397Z,99661.75
2022-10-25T10:47:38.198Z,99658.97
2022-10-25T10:50:23.397Z,99660.50
2022-10-25T10:52:55.213Z,99659.41
2022-10-25T10:55:34.956Z,99656.38
2022-10-25T10:58:04.587Z,99648.47
2022-10-25T11:00:33.545Z,99643.81
2022-10-25T11:03:00.586Z,99652.00
2022-10-25T11:05:34.871Z,99651.94
2022-10-25T11:08:16.695Z,99643.97
2022-10-25T11:10:43.315Z,99647.00
2022-10-25T11:13:09.851Z,99650.28
2022-10-25T11:16:01.920Z,99653.50
2022-10-25T11:18:53.309Z,99646.47
2022-10-25T11:21:39.505Z,99642.16
2022-10-25T11:24:28.253Z,99635.06
2022-10-25T11:27:11.790Z,99636.56
2022-10-25T11:29:49.982Z,99619.03
2022-10-25T11:32:46.442Z,99611.97
2022-10-25T11:35:32.159Z,99603.91
2022-10-25T11:38:03.083Z,99611.34
2022-10-25T11:40:34.948Z,99610.56
2022-10-25T11:43:30.306Z,99594.97
2022-10-25T11:46:05.600Z,99598.94
2022-10-25T11:48:51.747Z,99596.84
2022-10-25T11:51:44.345Z,99584.63
2022-10-25T11:54:43.082Z,99591.56
2022-10-25T11:57:29.517Z,99583.63
2022-10-25T12:00:18.646Z,99572.47
2022-10-25T12:03:15.928Z,99575.41
2022-10-25T12:05:53.171Z,99556.13
2022-10-25T12:08:30.986Z,99553.38
2022-10-25T12:11:13.828Z,99558.38
2022-10-25T12:13:48.358Z,99558.22
2022-10-25T12:16:18.659Z,99552.72
2022-10-25T12:18:51.156Z,99553.59
2022-10-25T12:21:24.245Z,99551.66
2022-10-25T12:23:53.071Z,99555.81
2022-10-25T12:26:28.551Z,99543.59
2022-10-25T12:28:59.187Z,99527.06
2022-10-25T12:31:29.023Z,99527.78
2022-10-25T12:34:02.198Z,99548.72
2022-10-25T12:36:38.151Z,99553.91
2022-10-25T12:39:14.022Z,99558.63
2022-10-25T12:41:44.988Z,99544.81
2022-10-25T12:44:29.546Z,99541.19
2022-10-25T12:47:18.245Z,99544.88
2022-10-25T12:50:02.795Z,99552.72
2022-10-25T12:52:36.724Z,99551.53
2022-10-25T12:55:21.718Z,99533.94
2022-10-25T12:58:00.804Z,99531.91
2022-10-25T13:00:31.966Z,99531.19
2022-10-25T13:03:18.534Z,99531.72
2022-10-25T13:05:55.670Z,99521.47
2022-10-25T13:08:24.570Z,99515.25
2022-10-25T13:11:02.881Z,99519.22
2022-10-25T13:13:52.063Z,99529.78
2022-10-25T13:16:30.001Z,99536.03
2022-10-25T13:19:35.850Z,99517.84
2022-10-25T13:22:13.155Z,99515.09
2022-10-25T13:24:41.471Z,99514.81
2022-10-25T13:27:19.663Z,99513.81
2022-10-25T13:30:07.389Z,99503.44
2022-10-25T13:32:38.770Z,99490.94
2022-10-25T13:35:21.186Z,99488.75
2022-10-25T13:37:50.966Z,99484.00
2022-10-25T13:40:19.990Z,99484.06
2022-10-25T13:42:49.451Z,99469.16
2022-10-25T13:45:31.283Z,99472.94
2022-10-25T13:48:10.847Z,99468.41
2022-10-25T13:50:53.084Z,99477.66
2022-10-25T13:53:22.648Z,99465.34
2022-10-25T13:56:00.451Z,99467.09
2022-10-25T13:59:46.978Z,56282.84
2022-10-25T14:03:17.235Z,56282.84
2022-10-25T14:06:54.759Z,56282.84
2022-10-25T14:10:33.547Z,56282.84
2022-10-25T14:14:23.561Z,56282.84
2022-10-25T14:17:53.216Z,56282.84
2022-10-25T14:21:26.122Z,56282.84
2022-10-25T14:24:53.694Z,56282.84
2022-10-25T14:28:30.078Z,56282.84
2022-10-25T14:31:56.952Z,56282.84
2022-10-25T14:35:24.355Z,56282.84
2022-10-25T14:38:52.774Z,56282.84
2022-10-25T14:42:25.547Z,56282.84
2022-10-25T14:46:02.989Z,56282.84
2022-10-25T14:49:28.778Z,56282.84
2022-10-25T14:53:01.145Z,56282.84
2022-10-25T14:56:46.720Z,56282.84
2022-10-25T15:00:24.889Z,56282.84
2022-10-25T15:03:59.159Z,56282.84
2022-10-25T15:07:30.535Z,56282.84
2022-10-25T15:11:00.841Z,56282.84
2022-10-25T15:14:31.116Z,56282.84
2022-10-25T15:18:00.140Z,56282.84
2022-10-25T15:21:41.995Z,56282.84
2022-10-25T15:25:23.470Z,56282.84
2022-10-25T15:28:51.357Z,56282.84
2022-10-25T15:32:20.633Z,56282.84
2022-10-25T15:35:53.189Z,56282.84
2022-10-25T15:39:28.353Z,56282.84
2022-10-25T15:42:53.384Z,56282.84
2022-10-25T15:46:33.217Z,56282.84
2022-10-25T15:49:59.377Z,56282.84
2022-10-25T15:53:25.441Z,56282.84
2022-10-25T15:56:54.111Z,56282.84
2022-10-25T16:00:22.955Z,56282.84
2022-10-25T16:03:51.130Z,56282.84
2022-10-25T16:07:16.517Z,56282.84
2022-10-25T16:10:42.206Z,56282.84
2022-10-25T16:14:11.917Z,56282.84
2022-10-25T16:17:36.910Z,56282.84
2022-10-25T16:21:02.018Z,56282.84
2022-10-25T16:24:27.204Z,56282.84
2022-10-25T16:27:53.007Z,56282.84
2022-10-25T16:31:17.949Z,56282.84
2022-10-25T16:34:46.164Z,56282.84
2022-10-25T16:38:11.328Z,56282.84
2022-10-25T16:41:37.584Z,56282.84
2022-10-25T16:45:03.824Z,56282.84
2022-10-25T16:48:29.784Z,56282.84
2022-10-25T16:51:54.756Z,56282.84
2022-10-25T16:55:20.360Z,56282.84
2022-10-25T16:58:45.363Z,56282.84
2022-10-25T17:02:22.940Z,56282.84
2022-10-25T17:05:48.014Z,56282.84
2022-10-25T17:09:13.428Z,56282.84
2022-10-25T17:12:42.514Z,56282.84
2022-10-25T17:16:09.168Z,56282.84
2022-10-25T17:19:35.174Z,56282.84
2022-10-25T17:23:00.236Z,56282.84
2022-10-25T17:26:25.542Z,56282.84
2022-10-25T17:29:50.526Z,56282.84
2022-10-25T17:33:15.558Z,56282.84
2022-10-25T17:36:40.992Z,56282.84
2022-10-25T17:40:06.482Z,56282.84
2022-10-25T17:43:31.658Z,56282.84
2022-10-25T17:47:02.329Z,56282.84
2022-10-25T17:50:28.215Z,56282.84
2022-10-25T17:53:54.361Z,56282.84
2022-10-25T17:57:20.058Z,56282.84
2022-10-25T18:00:45.598Z,56282.84
2022-10-25T18:04:11.517Z,56282.84
2022-10-25T18:07:36.516Z,56282.84
2022-10-25T18:11:07.650Z,56282.84
2022-10-25T18:14:32.704Z,56282.84
2022-10-25T18:17:57.750Z,56282.84
2022-10-25T18:21:22.910Z,56282.84
2022-10-25T18:24:48.301Z,56282.84
2022-10-25T18:28:13.311Z,56282.84
2022-10-25T18:31:38.417Z,56282.84
2022-10-25T18:35:03.588Z,56282.84
2022-10-25T18:38:28.709Z,56282.84
2022-10-25T18:41:55.877Z,56282.84
2022-10-25T18:45:23.461Z,56282.84
2022-10-25T18:48:51.090Z,56282.84
2022-10-25T18:52:17.049Z,56282.84
2022-10-25T18:55:45.746Z,56282.84
2022-10-25T18:59:11.277Z,56282.84
2022-10-25T19:02:37.913Z,56282.84
2022-10-25T19:06:03.580Z,56282.84
2022-10-25T19:09:28.874Z,56282.84
2022-10-25T19:12:53.865Z,56282.84
2022-10-25T19:16:18.818Z,56282.84
2022-10-25T19:19:43.887Z,56282.84
2022-10-25T19:23:09.372Z,56282.84
2022-10-25T19:26:34.738Z,56282.84
2022-10-25T19:29:59.738Z,56282.84
2022-10-25T19:33:24.981Z,56282.84
2022-10-25T19:36:51.936Z,56282.84
2022-10-25T19:40:17.500Z,56282.84
2022-10-25T19:43:45.702Z,56282.84
2022-10-25T19:47:11.679Z,56282.84
2022-10-25T19:50:38.186Z,56282.84
2022-10-25T19:54:03.310Z,56282.84
2022-10-25T19:57:28.338Z,56282.84
2022-10-25T20:01:04.795Z,56282.84
2022-10-25T20:04:30.039Z,56282.84
2022-10-25T20:07:55.383Z,56282.84
2022-10-25T20:11:21.183Z,56282.84
2022-10-25T20:14:46.144Z,56282.84
2022-10-25T20:18:11.160Z,56282.84
2022-10-25T20:21:36.603Z,56282.84
2022-10-25T20:25:07.224Z,56282.84
2022-10-25T20:28:33.127Z,56282.84
2022-10-25T20:31:57.998Z,56282.84
2022-10-25T20:35:26.183Z,56282.84
2022-10-25T20:38:52.308Z,56282.84
2022-10-25T20:42:18.501Z,56282.84
2022-10-25T20:45:47.986Z,56282.84
2022-10-25T20:49:13.027Z,56282.84
2022-10-25T20:52:47.668Z,56282.84
2022-10-25T20:56:13.725Z,56282.84
2022-10-25T20:59:38.696Z,56282.84
2022-10-25T21:03:03.686Z,56282.84
2022-10-25T21:06:29.017Z,56282.84
2022-10-25T21:09:54.029Z,56282.84
2022-10-25T21:13:19.178Z,56282.84
2022-10-25T21:16:44.174Z,56282.84
2022-10-25T21:20:09.522Z,56282.84
2022-10-25T21:23:35.093Z,56282.84
2022-10-25T21:27:01.161Z,56282.84
2022-10-25T21:30:26.199Z,56282.84
2022-10-25T21:33:53.167Z,56282.84
2022-10-25T21:37:19.123Z,56282.84
2022-10-25T21:40:44.224Z,56282.84
2022-10-25T21:47:39.083Z,56282.84
2022-10-25T21:51:05.377Z,56282.84
2022-10-25T21:54:30.502Z,56282.84
2022-10-25T21:57:56.749Z,56282.84
2022-10-25T22:01:23.642Z,56282.84
2022-10-25T22:04:48.715Z,56282.84
2022-10-25T22:08:14.435Z,56282.84
2022-10-25T22:11:39.574Z,56282.84
2022-10-25T22:15:06.850Z,56282.84
2022-10-25T22:18:32.282Z,56282.84
2022-10-25T22:22:01.488Z,56282.84
2022-10-25T22:25:26.560Z,56282.84
2022-10-25T22:28:55.602Z,56282.84
2022-10-25T22:32:21.022Z,56282.84
2022-10-25T22:35:46.179Z,56282.84
2022-10-25T22:39:11.239Z,56282.84
2022-10-25T22:42:36.253Z,56282.84
2022-10-25T22:46:02.184Z,56282.84
2022-10-25T22:49:27.037Z,56282.84
2022-10-25T22:52:52.061Z,56282.84
2022-10-25T22:56:20.584Z,56282.84
2022-10-25T22:59:47.153Z,56282.84
2022-10-25T23:03:12.200Z,56282.84
2022-10-25T23:06:38.715Z,56282.84
2022-10-25T23:10:05.459Z,56282.84
2022-10-25T23:13:34.352Z,56282.84
2022-10-25T23:17:00.059Z,56282.84
2022-10-25T23:20:25.045Z,56282.84
2022-10-25T23:23:50.953Z,56282.84
2022-10-25T23:27:15.846Z,56282.84
2022-10-25T23:30:41.974Z,56282.84
2022-10-25T23:34:07.183Z,56282.84
2022-10-25T23:37:32.145Z,56282.84
2022-10-25T23:40:57.221Z,56282.84
2022-10-25T23:44:22.560Z,56282.84
2022-10-25T23:47:48.073Z,56282.84
2022-10-25T23:51:14.547Z,56282.84
2022-10-25T23:54:39.934Z,56282.84
2022-10-25T23:58:05.213Z,56282.84
